Time;durP1;ratioP1;P1;durP2;ratioP2;P2;SDS_P1;SDS_P2;PMS_P1;PMS_P2;Temp;Humidity;BMP_temperature;BMP_pressure;BME280_temperature;BME280_humidity;BME280_pressure;Samples;Min_cycle;Max_cycle;Signal;HPM_P1;HPM_P2
2023/01/17 00:01:41;;;;;;;10.67;4.10;;;;;;;6.10;82.88;97638.13;4999887;28;20549;-80
2023/01/17 00:09:53;;;;;;;6.82;1.90;;;;;;;6.05;83.13;97624.31;4999651;28;20045;-79
2023/01/17 00:12:24;;;;;;;5.68;1.65;;;;;;;6.03;83.25;97619.16;4999861;28;20030;-79
2023/01/17 00:14:52;;;;;;;7.03;2.03;;;;;;;6.01;82.71;97613.97;4997590;28;20117;-80
2023/01/17 00:17:17;;;;;;;5.22;1.65;;;;;;;6.03;82.76;97617.41;4999642;28;20092;-79
2023/01/17 01:34:31;;;;;;;0.40;0.10;;;;;;;5.95;83.39;97436.50;4998237;28;20407;-78
2023/01/17 01:36:56;;;;;;;0.40;0.10;;;;;;;5.95;83.00;97441.72;4998381;28;20026;-79
2023/01/17 01:39:22;;;;;;;0.40;0.10;;;;;;;5.94;83.14;97450.47;4997858;28;20038;-79
2023/01/17 01:41:47;;;;;;;0.50;0.10;;;;;;;5.98;83.81;97462.53;4998137;28;20080;-78
2023/01/17 01:44:42;;;;;;;0.40;0.10;;;;;;;5.99;83.16;97466.84;5013190;28;20081;-79
2023/01/17 01:47:19;;;;;;;0.40;0.10;;;;;;;6.01;83.00;97462.47;4993629;28;20029;-79
2023/01/17 01:49:45;;;;;;;0.40;0.10;;;;;;;6.00;83.52;97450.28;4998025;28;20030;-79
2023/01/17 01:52:11;;;;;;;0.40;0.10;;;;;;;5.99;83.44;97447.69;4997687;28;20030;-79
2023/01/17 01:54:49;;;;;;;0.50;0.10;;;;;;;6.00;83.55;97441.56;4998302;28;20048;-80
2023/01/17 01:57:17;;;;;;;0.40;0.10;;;;;;;6.01;83.35;97449.41;4997916;28;20053;-79
2023/01/17 01:59:48;;;;;;;0.40;0.10;;;;;;;6.06;83.75;97449.25;4997955;28;20054;-79
2023/01/17 02:02:14;;;;;;;0.40;0.10;;;;;;;6.11;83.97;97441.25;4997651;28;20034;-79
2023/01/17 02:04:40;;;;;;;0.40;0.10;;;;;;;6.10;83.44;97440.41;5013021;28;20042;-79
2023/01/17 02:07:29;;;;;;;0.40;0.10;;;;;;;6.10;83.35;97436.94;4997860;28;20029;-78
2023/01/17 02:09:56;;;;;;;0.40;0.00;;;;;;;6.12;83.47;97456.03;4996588;28;20030;-79
2023/01/17 02:12:22;;;;;;;0.30;0.10;;;;;;;6.09;83.57;97433.50;4998043;28;20038;-79
2023/01/17 02:14:47;;;;;;;0.40;0.10;;;;;;;6.05;83.34;97425.78;5000452;28;20033;-78
2023/01/17 02:17:34;;;;;;;0.40;0.10;;;;;;;6.00;82.72;97428.50;4997657;28;20089;-78
2023/01/17 02:20:18;;;;;;;0.40;0.10;;;;;;;5.97;83.61;97434.69;4997604;28;20063;-79
2023/01/17 02:23:18;;;;;;;0.40;0.10;;;;;;;5.99;83.35;97445.94;5000281;28;20022;-79
2023/01/17 02:26:22;;;;;;;0.30;0.10;;;;;;;5.97;83.27;97450.38;4997666;28;20094;-78
2023/01/17 02:29:11;;;;;;;0.40;0.10;;;;;;;5.97;83.71;97450.38;4995807;28;20045;-78
2023/01/17 02:31:41;;;;;;;0.45;0.10;;;;;;;5.94;83.35;97440.03;4997340;28;20027;-78
2023/01/17 02:34:43;;;;;;;0.40;0.10;;;;;;;5.95;83.25;97426.06;4997324;28;20026;-78
2023/01/17 02:37:22;;;;;;;0.40;0.10;;;;;;;5.97;83.70;97429.47;4997642;28;20105;-78
2023/01/17 02:39:57;;;;;;;0.40;0.10;;;;;;;5.93;82.81;97401.75;5001596;28;20034;-78
2023/01/17 02:42:29;;;;;;;0.40;0.10;;;;;;;5.91;83.01;97440.13;5001474;28;20078;-78
2023/01/17 02:44:54;;;;;;;0.30;0.00;;;;;;;5.95;83.19;97472.19;5001535;28;20113;-77
2023/01/17 02:47:24;;;;;;;0.40;0.10;;;;;;;6.01;83.83;97493.81;5001228;28;20034;-77
2023/01/17 02:49:52;;;;;;;0.40;0.10;;;;;;;6.09;84.00;97498.81;5001304;28;20427;-77
2023/01/17 02:52:21;;;;;;;0.40;0.10;;;;;;;6.12;84.03;97475.19;5001022;28;20031;-77
2023/01/17 02:54:49;;;;;;;0.40;0.10;;;;;;;6.15;83.86;97453.34;5001016;28;20368;-77
2023/01/17 02:58:02;;;;;;;0.38;0.10;;;;;;;6.17;83.31;97433.25;5001284;28;20402;-77
2023/01/17 03:00:38;;;;;;;0.40;0.10;;;;;;;6.17;83.20;97402.72;5014438;28;20069;-77
2023/01/17 03:03:22;;;;;;;0.35;0.10;;;;;;;6.13;83.39;97374.13;5013103;28;20031;-77
2023/01/17 03:05:53;;;;;;;0.40;0.10;;;;;;;6.10;83.89;97355.94;5016215;28;20050;-77
2023/01/17 03:08:20;;;;;;;0.40;0.10;;;;;;;6.07;83.56;97358.66;5000690;28;20077;-77
2023/01/17 03:10:45;;;;;;;0.40;0.10;;;;;;;6.05;83.25;97363.09;5000972;28;20026;-77
2023/01/17 03:13:11;;;;;;;0.40;0.10;;;;;;;6.10;84.00;97362.03;5000944;28;20559;-77
2023/01/17 03:15:38;;;;;;;0.30;0.00;;;;;;;6.16;83.79;97367.06;5000882;28;20040;-77
2023/01/17 03:18:10;;;;;;;0.40;0.10;;;;;;;6.23;83.76;97369.47;5000873;28;20444;-77
2023/01/17 03:20:35;;;;;;;0.40;0.10;;;;;;;6.24;83.32;97358.09;5002071;28;20072;-77
2023/01/17 03:23:00;;;;;;;0.40;0.10;;;;;;;6.26;83.70;97351.06;5002977;28;20029;-77
2023/01/17 03:25:26;;;;;;;0.40;0.10;;;;;;;6.26;83.68;97345.84;5015699;28;20121;-77
2023/01/17 03:27:51;;;;;;;0.30;0.10;;;;;;;6.24;83.76;97363.31;5000636;28;20026;-77
2023/01/17 03:30:17;;;;;;;0.40;0.10;;;;;;;6.21;83.59;97364.31;5000633;28;20037;-77
2023/01/17 03:32:42;;;;;;;0.40;0.10;;;;;;;6.22;83.43;97358.16;5000513;28;20426;-77
2023/01/17 03:35:08;;;;;;;0.50;0.10;;;;;;;6.26;83.23;97364.13;5015774;28;20057;-78
2023/01/17 03:37:33;;;;;;;0.40;0.10;;;;;;;6.29;84.02;97370.13;5000252;28;20554;-77
2023/01/17 03:39:59;;;;;;;0.40;0.10;;;;;;;6.35;83.73;97365.59;5000590;28;20407;-77
2023/01/17 03:42:24;;;;;;;0.40;0.10;;;;;;;6.39;83.94;97370.66;4999107;28;20034;-77
2023/01/17 03:44:49;;;;;;;0.40;0.10;;;;;;;6.44;83.65;97360.06;5000394;28;20082;-78
2023/01/17 03:47:15;;;;;;;0.37;0.10;;;;;;;6.46;83.15;97363.47;5000357;28;20501;-78
2023/01/17 03:49:40;;;;;;;0.30;0.03;;;;;;;6.50;83.61;97354.63;4999411;28;20383;-78
2023/01/17 03:52:06;;;;;;;0.40;0.10;;;;;;;6.53;84.29;97348.44;4999633;28;20104;-78
2023/01/17 03:54:32;;;;;;;0.40;0.10;;;;;;;6.52;83.51;97341.50;5000244;28;20023;-78
2023/01/17 03:56:57;;;;;;;0.50;0.10;;;;;;;6.55;83.10;97326.53;5000147;28;20026;-78
2023/01/17 03:59:22;;;;;;;0.37;0.10;;;;;;;6.57;83.77;97335.19;5000298;28;20170;-78
2023/01/17 04:01:48;;;;;;;0.33;0.03;;;;;;;6.59;83.69;97333.34;4998694;28;20022;-78
2023/01/17 04:04:14;;;;;;;0.40;0.10;;;;;;;6.63;83.79;97333.25;5015214;28;20437;-78
2023/01/17 04:06:39;;;;;;;0.40;0.10;;;;;;;6.66;83.07;97325.31;4999923;28;20254;-78
2023/01/17 04:09:05;;;;;;;0.40;0.10;;;;;;;6.69;83.10;97312.13;4999414;28;20046;-78
2023/01/17 04:11:30;;;;;;;0.40;0.10;;;;;;;6.70;83.61;97296.38;4999918;28;20380;-79
2023/01/17 04:13:56;;;;;;;0.30;0.10;;;;;;;6.69;83.51;97288.59;4999877;28;20026;-79
2023/01/17 04:16:26;;;;;;;0.40;0.10;;;;;;;6.70;83.78;97282.47;4999684;28;20032;-78
2023/01/17 04:18:52;;;;;;;0.40;0.10;;;;;;;6.63;83.17;97250.44;4999898;28;20049;-78
2023/01/17 04:21:17;;;;;;;0.50;0.10;;;;;;;6.56;82.95;97217.59;5002284;28;20027;-79
2023/01/17 04:23:43;;;;;;;0.35;0.10;;;;;;;6.51;82.78;97198.59;4999451;28;20026;-78
2023/01/17 04:26:10;;;;;;;0.47;0.10;;;;;;;6.49;83.81;97190.84;4999309;28;20038;-78
2023/01/17 04:28:36;;;;;;;0.82;0.57;;;;;;;6.46;83.16;97191.78;4999696;28;20080;-78
2023/01/17 04:31:02;;;;;;;0.40;0.10;;;;;;;6.48;83.37;97215.25;4999425;28;20077;-78
2023/01/17 04:33:28;;;;;;;0.40;0.10;;;;;;;6.47;83.42;97193.50;4999496;28;20518;-78
2023/01/17 04:35:54;;;;;;;0.40;0.10;;;;;;;6.49;83.55;97158.59;4999542;28;20142;-78
2023/01/17 04:38:20;;;;;;;0.40;0.10;;;;;;;6.49;83.28;97175.16;4999531;28;20153;-78
2023/01/17 04:40:45;;;;;;;0.30;0.10;;;;;;;6.43;83.10;97164.94;4999228;28;20058;-79
2023/01/17 04:43:10;;;;;;;0.40;0.10;;;;;;;6.37;83.03;97158.16;4999392;28;20147;-78
2023/01/17 04:45:37;;;;;;;0.40;0.10;;;;;;;6.35;83.18;97161.72;4999198;28;20030;-78
2023/01/17 04:48:06;;;;;;;0.40;0.10;;;;;;;6.34;83.55;97167.88;4998732;28;20036;-79
2023/01/17 04:50:32;;;;;;;0.40;0.10;;;;;;;6.33;83.10;97169.63;4999056;28;20022;-78
2023/01/17 04:52:58;;;;;;;0.50;0.10;;;;;;;6.32;83.48;97167.94;4998792;28;20057;-79
2023/01/17 04:55:23;;;;;;;0.40;0.10;;;;;;;6.35;83.85;97180.03;4998973;28;20030;-78
2023/01/17 04:57:49;;;;;;;0.43;0.10;;;;;;;6.37;83.78;97189.53;4999026;28;20026;-79
2023/01/17 05:00:15;;;;;;;0.47;0.10;;;;;;;6.39;83.38;97194.69;4998803;28;20025;-79
2023/01/17 05:02:40;;;;;;;0.40;0.10;;;;;;;6.41;83.64;97188.50;4998881;28;20018;-78
2023/01/17 05:05:06;;;;;;;0.50;0.10;;;;;;;6.44;83.58;97190.16;4998958;28;20034;-79
2023/01/17 05:07:32;;;;;;;0.30;0.10;;;;;;;6.46;83.15;97193.56;4998596;28;20034;-79
2023/01/17 05:09:59;;;;;;;0.40;0.10;;;;;;;6.49;83.39;97192.56;5013781;28;20034;-79
2023/01/17 05:12:28;;;;;;;0.40;0.10;;;;;;;6.52;83.46;97201.16;4998965;28;20383;-79
2023/01/17 05:14:53;;;;;;;0.40;0.10;;;;;;;6.57;83.49;97225.38;4998697;28;20026;-79
2023/01/17 05:17:19;;;;;;;0.40;0.10;;;;;;;6.61;83.48;97232.19;4998802;28;20391;-79
2023/01/17 05:19:44;;;;;;;0.40;0.10;;;;;;;6.66;83.72;97244.25;4998748;28;20093;-78
2023/01/17 05:22:14;;;;;;;0.40;0.10;;;;;;;6.70;83.44;97241.47;5001958;28;20037;-79
2023/01/17 05:24:43;;;;;;;0.40;0.10;;;;;;;6.75;83.46;97238.69;4998381;28;20101;-79
2023/01/17 05:27:10;;;;;;;0.40;0.10;;;;;;;6.76;83.31;97222.06;4998693;28;20109;-78
2023/01/17 05:29:36;;;;;;;0.40;0.10;;;;;;;6.76;83.58;97206.38;4998368;28;20022;-79
2023/01/17 05:32:02;;;;;;;0.30;0.10;;;;;;;6.78;83.96;97201.09;4998311;28;20030;-79
2023/01/17 05:34:28;;;;;;;0.40;0.10;;;;;;;6.79;84.01;97187.13;4998504;28;20058;-79
2023/01/17 05:36:53;;;;;;;0.30;0.10;;;;;;;6.81;83.73;97199.22;4998455;28;20018;-79
2023/01/17 05:39:18;;;;;;;0.30;0.10;;;;;;;6.83;84.41;97186.91;4998193;28;20084;-79
2023/01/17 05:41:44;;;;;;;0.40;0.10;;;;;;;6.86;84.40;97183.34;4998638;28;20467;-79
2023/01/17 05:44:10;;;;;;;0.40;0.10;;;;;;;6.87;84.05;97187.66;4997893;28;20085;-78
2023/01/17 05:46:36;;;;;;;0.40;0.10;;;;;;;6.87;84.04;97185.91;4998181;28;20034;-79
2023/01/17 05:49:01;;;;;;;0.40;0.10;;;;;;;6.88;83.59;97177.16;4996766;28;20064;-79
2023/01/17 05:51:28;;;;;;;0.50;0.10;;;;;;;6.89;83.89;97178.84;4998168;28;20057;-79
2023/01/17 05:53:53;;;;;;;0.40;0.10;;;;;;;6.93;83.54;97178.72;4997801;28;20407;-79
2023/01/17 05:56:19;;;;;;;0.40;0.10;;;;;;;6.95;83.02;97171.69;5006149;28;20041;-79
2023/01/17 05:58:45;;;;;;;0.25;0.10;;;;;;;6.96;83.49;97171.59;4998169;28;20030;-79
2023/01/17 06:01:10;;;;;;;0.40;0.10;;;;;;;6.97;83.78;97188.16;4998121;28;20538;-79
2023/01/17 06:03:36;;;;;;;0.40;0.10;;;;;;;6.98;83.54;97188.09;4998002;28;20018;-79
2023/01/17 06:06:01;;;;;;;0.40;0.10;;;;;;;6.96;83.01;97194.31;4998047;28;20483;-78
2023/01/17 06:08:26;;;;;;;0.30;0.10;;;;;;;6.89;82.56;97191.94;4997675;28;20573;-78
2023/01/17 06:10:52;;;;;;;0.50;0.10;;;;;;;6.85;82.78;97186.88;4997956;28;20033;-78
2023/01/17 06:13:20;;;;;;;0.40;0.10;;;;;;;6.82;83.29;97190.44;4996213;28;20026;-79
2023/01/17 06:15:47;;;;;;;0.50;0.10;;;;;;;6.83;83.86;97194.75;4998451;28;20041;-79
2023/01/17 06:18:15;;;;;;;0.40;0.10;;;;;;;6.83;84.11;97199.16;4997719;28;20023;-80
2023/01/17 06:20:41;;;;;;;0.40;0.08;;;;;;;6.86;83.35;97220.81;4998553;28;20510;-79
2023/01/17 06:23:10;;;;;;;0.40;0.10;;;;;;;6.88;83.76;97244.28;4996790;28;20049;-79
2023/01/17 06:25:44;;;;;;;0.40;0.10;;;;;;;6.91;83.53;97274.72;5003660;28;20053;-79
2023/01/17 06:28:11;;;;;;;0.40;0.10;;;;;;;6.94;83.62;97308.63;4991312;28;20041;-79
2023/01/17 06:30:37;;;;;;;0.40;0.10;;;;;;;6.92;83.71;97308.66;4997743;28;20026;-79
2023/01/17 06:33:03;;;;;;;0.40;0.10;;;;;;;6.82;82.59;97305.53;4997579;28;20072;-79
2023/01/17 06:35:29;;;;;;;0.40;0.10;;;;;;;6.72;82.86;97319.88;5012607;28;20590;-78
2023/01/17 06:37:56;;;;;;;0.40;0.10;;;;;;;6.74;83.05;97378.19;5012341;28;20073;-79
2023/01/17 06:40:25;;;;;;;0.40;0.10;;;;;;;6.65;83.41;97371.53;4997390;28;20157;-80
2023/01/17 06:42:51;;;;;;;0.50;0.10;;;;;;;6.66;83.33;97325.31;4996391;28;20072;-80
2023/01/17 06:45:17;;;;;;;0.40;0.10;;;;;;;6.72;83.93;97351.25;4997374;28;20105;-80
2023/01/17 06:47:42;;;;;;;0.50;0.10;;;;;;;6.75;83.76;97338.06;4997383;28;20030;-75
2023/01/17 06:50:13;;;;;;;0.40;0.10;;;;;;;6.79;84.03;97276.03;4996190;28;20092;-73
2023/01/17 06:52:40;;;;;;;0.40;0.10;;;;;;;6.82;83.53;97308.16;4997290;28;20084;-74
2023/01/17 06:55:06;;;;;;;0.50;0.10;;;;;;;6.83;83.50;97309.84;4997402;28;20439;-76
2023/01/17 06:57:32;;;;;;;0.50;0.10;;;;;;;6.82;83.51;97286.38;4997392;28;20491;-74
2023/01/17 06:59:57;;;;;;;0.40;0.10;;;;;;;6.86;83.98;97330.66;4997346;28;20034;-75
2023/01/17 07:02:23;;;;;;;0.40;0.10;;;;;;;6.83;83.75;97338.63;4997189;28;20102;-76
2023/01/17 07:04:48;;;;;;;0.40;0.10;;;;;;;6.88;83.27;97346.31;4997281;28;20387;-75
2023/01/17 07:07:14;;;;;;;0.50;0.10;;;;;;;6.89;83.33;97354.13;4995699;28;20026;-77
2023/01/17 07:09:39;;;;;;;0.40;0.10;;;;;;;6.91;83.34;97351.44;4997219;28;20530;-76
2023/01/17 07:12:05;;;;;;;0.40;0.10;;;;;;;6.98;83.58;97347.66;4997242;28;20080;-75
2023/01/17 07:14:31;;;;;;;0.47;0.10;;;;;;;7.00;83.52;97342.38;4999061;28;20514;-75
2023/01/17 07:16:56;;;;;;;0.40;0.10;;;;;;;7.01;83.71;97370.25;5007647;28;20438;-75
2023/01/17 07:19:23;;;;;;;0.50;0.10;;;;;;;7.02;83.60;97358.88;5004202;28;20026;-77
2023/01/17 07:21:53;;;;;;;0.40;0.10;;;;;;;7.02;83.86;97382.44;5004895;28;20265;-76
2023/01/17 07:24:19;;;;;;;0.40;0.10;;;;;;;6.96;83.19;97378.28;4998717;28;20434;-78
2023/01/17 07:26:49;;;;;;;0.40;0.10;;;;;;;6.98;83.04;97359.91;5010375;28;20039;-76
2023/01/17 07:29:15;;;;;;;0.40;0.10;;;;;;;6.96;83.99;97366.97;5004349;28;20112;-76
2023/01/17 07:31:41;;;;;;;0.50;0.10;;;;;;;6.97;83.43;97389.59;4981083;28;20071;-76
2023/01/17 07:34:06;;;;;;;0.43;0.10;;;;;;;7.00;84.23;97410.41;4998015;28;20427;-76
2023/01/17 07:36:32;;;;;;;0.40;0.10;;;;;;;7.02;83.49;97417.31;5002877;28;20038;-78
2023/01/17 07:38:57;;;;;;;0.35;0.10;;;;;;;7.08;83.86;97429.31;5000338;28;20034;-75
2023/01/17 07:41:23;;;;;;;0.40;0.10;;;;;;;7.15;84.11;97433.44;5000558;28;20037;-77
2023/01/17 07:43:48;;;;;;;0.40;0.10;;;;;;;7.19;83.31;97452.47;4990121;28;20385;-77
2023/01/17 07:46:14;;;;;;;0.50;0.10;;;;;;;7.27;83.34;97444.34;4994441;28;20033;-78
2023/01/17 07:48:40;;;;;;;0.40;0.10;;;;;;;7.32;84.09;97447.66;5000631;28;20117;-78
2023/01/17 07:51:07;;;;;;;0.40;0.10;;;;;;;7.38;84.06;97434.34;5004370;28;20030;-78
2023/01/17 07:53:32;;;;;;;0.40;0.10;;;;;;;7.44;83.57;97446.34;4990768;28;20030;-77
2023/01/17 07:56:06;;;;;;;0.50;0.10;;;;;;;7.47;83.69;97452.34;4997277;28;20035;-78
2023/01/17 07:58:33;;;;;;;0.40;0.10;;;;;;;7.55;83.70;97459.03;4997533;28;20120;-78
2023/01/17 08:01:06;;;;;;;0.30;0.10;;;;;;;7.60;83.37;97457.13;4999376;28;20097;-79
2023/01/17 08:03:35;;;;;;;0.30;0.10;;;;;;;7.64;84.13;97461.34;4999557;28;20502;-78
2023/01/17 08:06:01;;;;;;;0.40;0.10;;;;;;;7.66;83.32;97467.38;4999204;28;20026;-79
2023/01/17 08:08:27;;;;;;;0.40;0.10;;;;;;;7.69;83.71;97469.88;4998045;28;20100;-79
2023/01/17 08:10:52;;;;;;;0.40;0.10;;;;;;;7.72;83.64;97466.28;4999071;28;20042;-78
2023/01/17 08:13:19;;;;;;;0.40;0.10;;;;;;;7.70;83.28;97474.19;4999036;28;20018;-78
2023/01/17 08:15:47;;;;;;;0.50;0.10;;;;;;;7.72;83.77;97487.25;4999303;28;20026;-78
2023/01/17 08:18:13;;;;;;;0.50;0.10;;;;;;;7.71;83.20;97501.22;4998183;28;20585;-79
2023/01/17 08:20:38;;;;;;;0.40;0.10;;;;;;;7.71;83.78;97507.34;5015644;28;20109;-79
2023/01/17 08:23:03;;;;;;;0.40;0.00;;;;;;;7.72;83.77;97509.03;5000021;28;20026;-79
2023/01/17 08:25:29;;;;;;;0.40;0.10;;;;;;;7.74;83.15;97501.97;4997565;28;20053;-78
2023/01/17 08:27:56;;;;;;;0.40;0.10;;;;;;;7.77;83.39;97506.25;4997095;28;20482;-78
2023/01/17 08:30:22;;;;;;;0.50;0.10;;;;;;;7.73;83.51;97513.38;4998369;28;20495;-79
2023/01/17 08:32:48;;;;;;;0.40;0.10;;;;;;;7.72;83.29;97510.81;4998463;28;20052;-78
2023/01/17 08:35:13;;;;;;;0.30;0.10;;;;;;;7.68;82.94;97525.78;4998126;28;20066;-78
2023/01/17 08:37:39;;;;;;;0.30;0.10;;;;;;;7.64;83.27;97531.19;4998261;28;20046;-78
2023/01/17 08:40:05;;;;;;;0.40;0.10;;;;;;;7.58;83.19;97532.25;5013037;28;20061;-81
2023/01/17 08:42:38;;;;;;;0.50;0.10;;;;;;;7.53;83.07;97536.81;5013573;28;20027;-79
2023/01/17 08:45:07;;;;;;;0.50;0.10;;;;;;;7.51;83.15;97555.22;4998462;28;20045;-79
2023/01/17 08:47:33;;;;;;;0.50;0.10;;;;;;;7.46;83.12;97551.88;4998094;28;20030;-78
2023/01/17 08:49:59;;;;;;;0.50;0.10;;;;;;;7.48;83.49;97560.56;4997797;28;20030;-79
2023/01/17 08:52:28;;;;;;;0.50;0.10;;;;;;;7.49;83.64;97559.66;4997897;28;20032;-79
2023/01/17 08:54:54;;;;;;;0.50;0.10;;;;;;;7.51;83.92;97557.81;4997055;28;20395;-79
2023/01/17 08:57:20;;;;;;;0.50;0.10;;;;;;;7.49;83.25;97564.88;4996846;28;20030;-79
2023/01/17 08:59:46;;;;;;;0.50;0.10;;;;;;;7.49;83.17;97584.97;4997823;28;20050;-79
2023/01/17 09:02:16;;;;;;;0.50;0.10;;;;;;;7.41;82.79;97583.47;4998011;28;20113;-80
2023/01/17 09:04:47;;;;;;;0.40;0.10;;;;;;;7.33;82.38;97595.94;4998189;28;20022;-80
2023/01/17 09:07:13;;;;;;;0.50;0.10;;;;;;;7.30;82.65;97619.63;5002146;28;20546;-80
2023/01/17 09:09:39;;;;;;;0.40;0.10;;;;;;;7.26;82.84;97615.41;4995405;28;20637;-78
2023/01/17 09:12:05;;;;;;;0.40;0.10;;;;;;;7.21;83.41;97625.16;4990907;28;20026;-79
2023/01/17 09:14:30;;;;;;;0.40;0.10;;;;;;;7.17;83.86;97587.75;4997804;28;20022;-80
2023/01/17 09:16:56;;;;;;;0.50;0.10;;;;;;;7.13;83.09;97597.50;4997712;28;20041;-79
2023/01/17 09:19:21;;;;;;;0.53;0.10;;;;;;;7.11;82.87;97594.06;4984686;28;20026;-79
2023/01/17 09:21:47;;;;;;;0.50;0.10;;;;;;;7.09;82.98;97592.41;5001415;28;20030;-79
2023/01/17 09:24:12;;;;;;;0.50;0.10;;;;;;;7.04;82.63;97582.97;4997220;28;20022;-78
2023/01/17 09:26:38;;;;;;;0.50;0.10;;;;;;;7.10;82.96;97576.63;4996017;28;20127;-79
2023/01/17 09:29:03;;;;;;;0.50;0.10;;;;;;;7.21;83.49;97570.22;4997344;28;20022;-78
2023/01/17 09:31:29;;;;;;;0.40;0.10;;;;;;;7.31;83.08;97571.59;4996930;28;20073;-79
2023/01/17 09:33:56;;;;;;;0.40;0.10;;;;;;;7.38;83.62;97586.19;5012695;28;20057;-78
2023/01/17 09:36:22;;;;;;;0.50;0.10;;;;;;;7.42;83.18;97605.25;4997543;28;20025;-78
2023/01/17 09:38:49;;;;;;;0.50;0.10;;;;;;;7.49;83.50;97605.91;4996882;28;20517;-80
2023/01/17 09:41:27;;;;;;;0.40;0.10;;;;;;;7.53;83.52;97615.38;4997062;28;20026;-79
2023/01/17 09:43:59;;;;;;;0.50;0.10;;;;;;;7.53;82.91;97618.84;4996174;28;20030;-79
2023/01/17 09:46:29;;;;;;;0.40;0.10;;;;;;;7.51;83.27;97619.81;4997132;28;20046;-79
2023/01/17 09:49:11;;;;;;;0.50;0.10;;;;;;;7.45;82.61;97619.09;4995557;28;20041;-80
2023/01/17 09:51:37;;;;;;;0.50;0.10;;;;;;;7.45;83.07;97613.00;4994592;28;20057;-79
2023/01/17 09:54:03;;;;;;;0.50;0.10;;;;;;;7.55;82.33;97621.41;4996826;28;20035;-78
2023/01/17 09:56:41;;;;;;;0.40;0.10;;;;;;;7.70;82.77;97644.44;4995334;28;20113;-78
2023/01/17 09:59:15;;;;;;;0.50;0.10;;;;;;;7.81;82.80;97645.81;4996724;28;20084;-78
2023/01/17 10:01:56;;;;;;;0.45;0.10;;;;;;;7.85;82.50;97655.31;4996323;28;20029;-78
2023/01/17 10:04:43;;;;;;;0.50;0.10;;;;;;;7.85;82.56;97665.78;4996602;28;20034;-78
2023/01/17 10:07:20;;;;;;;0.50;0.10;;;;;;;7.82;82.15;97668.50;4995687;28;20045;-79
2023/01/17 10:10:43;;;;;;;0.40;0.10;;;;;;;7.72;82.12;97695.03;4996297;28;20442;-79
2023/01/17 10:13:42;;;;;;;0.40;0.10;;;;;;;7.60;82.87;97687.59;4957940;28;20037;-79
2023/01/17 10:16:31;;;;;;;0.50;0.10;;;;;;;7.51;82.99;97683.50;4974573;28;20038;-79
2023/01/17 10:19:08;;;;;;;0.40;0.10;;;;;;;7.44;83.14;97685.47;4993382;28;20100;-79
2023/01/17 10:22:00;;;;;;;0.40;0.10;;;;;;;7.39;83.10;97684.78;5000475;28;20776;-80
2023/01/17 10:24:53;;;;;;;0.40;0.10;;;;;;;7.29;83.11;97668.50;5016824;28;21311;-80
2023/01/17 10:27:32;;;;;;;0.50;0.10;;;;;;;7.29;83.17;97678.13;5003217;28;20077;-81
2023/01/17 10:29:59;;;;;;;0.50;0.10;;;;;;;7.42;83.56;97668.97;4997034;28;20085;-79
2023/01/17 10:32:31;;;;;;;0.45;0.10;;;;;;;7.60;83.42;97664.03;4987513;28;20092;-80
2023/01/17 10:35:04;;;;;;;0.50;0.10;;;;;;;7.79;83.65;97653.75;4996827;28;20034;-79
2023/01/17 10:37:41;;;;;;;0.50;0.10;;;;;;;7.99;83.87;97642.56;4996302;28;20030;-80
2023/01/17 10:40:36;;;;;;;0.40;0.10;;;;;;;8.37;83.47;97622.88;4996606;28;20065;-80
2023/01/17 10:43:10;;;;;;;0.50;0.10;;;;;;;8.57;83.28;97649.22;4990935;28;20046;-80
2023/01/17 10:45:43;;;;;;;0.50;0.10;;;;;;;8.66;83.03;97668.13;5006494;28;20467;-80
2023/01/17 10:48:18;;;;;;;0.50;0.10;;;;;;;8.68;82.61;97666.31;5007455;28;20051;-78
2023/01/17 10:51:10;;;;;;;0.57;0.20;;;;;;;8.68;82.04;97667.19;4994423;28;20026;-78
2023/01/17 10:53:49;;;;;;;0.40;0.10;;;;;;;8.69;81.96;97670.63;4994174;28;20064;-78
2023/01/17 10:56:17;;;;;;;0.40;0.10;;;;;;;8.73;82.24;97664.34;4994697;28;20034;-78
2023/01/17 10:59:07;;;;;;;0.50;0.10;;;;;;;8.66;82.05;97653.22;4996520;28;20030;-79
2023/01/17 11:01:33;;;;;;;0.50;0.10;;;;;;;8.56;81.60;97668.50;4999636;28;20038;-80
2023/01/17 11:03:59;;;;;;;0.80;0.20;;;;;;;9.37;80.54;97649.56;4999238;28;20430;-80
2023/01/17 11:06:26;;;;;;;0.60;0.10;;;;;;;10.52;81.88;97639.38;4999761;28;20034;-81
2023/01/17 11:08:59;;;;;;;0.73;0.30;;;;;;;11.43;80.83;97630.69;4998699;28;20057;-79
2023/01/17 11:11:30;;;;;;;0.50;0.10;;;;;;;11.23;79.92;97644.84;4996941;28;20037;-80
2023/01/17 11:13:59;;;;;;;0.50;0.10;;;;;;;10.94;79.14;97657.63;5001850;28;20103;-82
2023/01/17 11:16:30;;;;;;;0.50;0.10;;;;;;;10.41;79.14;97667.94;5009617;28;20030;-80
2023/01/17 11:19:04;;;;;;;0.50;0.10;;;;;;;9.80;79.21;97672.34;5005346;28;20050;-80
2023/01/17 11:21:31;;;;;;;0.50;0.10;;;;;;;9.28;79.74;97668.31;4998490;28;20125;-81
2023/01/17 11:24:07;;;;;;;0.50;0.10;;;;;;;8.73;78.98;97667.84;5013606;28;20117;-82
2023/01/17 11:26:35;;;;;;;0.50;0.10;;;;;;;8.42;80.46;97652.38;4998970;28;20041;-79
2023/01/17 11:29:28;;;;;;;0.50;0.10;;;;;;;8.08;80.87;97661.47;4998817;28;20038;-81
2023/01/17 11:31:55;;;;;;;0.50;0.10;;;;;;;7.90;81.54;97663.88;4995956;28;20030;-82
2023/01/17 11:34:25;;;;;;;0.40;0.10;;;;;;;7.73;82.28;97652.19;4998109;28;20439;-81
2023/01/17 11:37:09;;;;;;;0.40;0.10;;;;;;;7.58;83.88;97643.13;4998303;28;20026;-82
2023/01/17 11:39:34;;;;;;;0.50;0.10;;;;;;;7.47;84.06;97648.72;4997144;28;20047;-82
2023/01/17 11:41:59;;;;;;;0.50;0.10;;;;;;;7.44;83.29;97655.81;4998720;28;20030;-80
2023/01/17 11:44:29;;;;;;;0.63;0.20;;;;;;;7.38;82.95;97646.41;4998481;28;20026;-79
2023/01/17 11:47:12;;;;;;;0.50;0.10;;;;;;;7.37;83.00;97644.72;4998383;28;20042;-81
2023/01/17 11:49:43;;;;;;;0.40;0.10;;;;;;;7.36;83.10;97653.47;4998587;28;20105;-80
2023/01/17 11:52:08;;;;;;;0.40;0.10;;;;;;;7.37;83.57;97646.44;5013591;28;20044;-83
2023/01/17 11:54:39;;;;;;;0.40;0.10;;;;;;;7.38;83.27;97646.41;4997171;28;20018;-80
2023/01/17 11:57:15;;;;;;;0.40;0.10;;;;;;;7.40;83.51;97649.84;4996158;28;20019;-80
2023/01/17 11:59:44;;;;;;;0.50;0.10;;;;;;;7.41;82.79;97651.53;4998393;28;20466;-78
2023/01/17 12:02:35;;;;;;;0.40;0.10;;;;;;;7.45;82.74;97645.28;4997100;28;20033;-79
2023/01/17 12:05:47;;;;;;;0.43;0.10;;;;;;;7.55;83.43;97644.97;4986764;28;20026;-83
2023/01/17 12:08:33;;;;;;;0.50;0.10;;;;;;;7.65;83.08;97637.66;4973466;28;20046;-78
2023/01/17 12:11:12;;;;;;;0.50;0.10;;;;;;;7.76;82.77;97628.50;4986174;28;20469;-81
2023/01/17 12:14:08;;;;;;;0.50;0.10;;;;;;;7.90;82.83;97630.63;4987422;28;20068;-82
2023/01/17 12:16:43;;;;;;;0.50;0.10;;;;;;;8.21;83.06;97625.22;4985330;28;20442;-82
2023/01/17 12:19:33;;;;;;;0.40;0.10;;;;;;;8.36;82.13;97621.16;4986196;28;20029;-81
2023/01/17 12:22:23;;;;;;;0.50;0.10;;;;;;;8.41;82.46;97627.06;4986362;28;20038;-79
2023/01/17 12:25:06;;;;;;;0.50;0.10;;;;;;;8.49;82.33;97619.75;4984774;28;20029;-79
2023/01/17 12:27:41;;;;;;;0.50;0.10;;;;;;;8.67;82.43;97625.25;4999541;28;20565;-78
2023/01/17 12:30:48;;;;;;;0.40;0.10;;;;;;;8.85;80.49;97605.28;5004462;28;20025;-79
2023/01/17 12:33:18;;;;;;;0.50;0.10;;;;;;;9.09;81.64;97606.09;5002710;28;20122;-80
2023/01/17 12:35:55;;;;;;;0.60;0.20;;;;;;;9.19;81.98;97598.69;4999039;28;20372;-81
2023/01/17 12:38:36;;;;;;;0.50;0.10;;;;;;;9.24;81.25;97601.97;5005263;28;20018;-81
2023/01/17 12:41:17;;;;;;;0.50;0.10;;;;;;;9.34;81.25;97616.41;5004800;28;20033;-82
2023/01/17 12:43:43;;;;;;;0.40;0.10;;;;;;;9.38;80.89;97611.88;4977356;28;20516;-80
2023/01/17 12:46:53;;;;;;;0.50;0.10;;;;;;;9.21;78.80;97611.72;4991267;28;20053;-79
2023/01/17 12:49:27;;;;;;;0.40;0.10;;;;;;;9.05;79.00;97623.72;4950059;28;20597;-78
2023/01/17 12:52:03;;;;;;;0.50;0.10;;;;;;;8.81;78.76;97614.22;5002307;28;20129;-79
2023/01/17 12:54:42;;;;;;;0.50;0.10;;;;;;;8.49;78.27;97601.41;5006772;28;20041;-78
2023/01/17 12:57:22;;;;;;;0.40;0.10;;;;;;;8.27;79.32;97572.53;4996957;28;20056;-72
2023/01/17 12:59:58;;;;;;;0.50;0.10;;;;;;;8.15;79.41;97572.06;4997493;28;20538;-71
2023/01/17 13:02:52;;;;;;;0.50;0.10;;;;;;;8.16;79.33;97589.50;4997401;28;20026;-70
2023/01/17 13:05:24;;;;;;;0.40;0.10;;;;;;;8.27;80.84;97599.59;4997337;28;20021;-71
2023/01/17 13:07:56;;;;;;;0.50;0.10;;;;;;;8.32;78.75;97597.69;5006265;28;20046;-70
2023/01/17 13:10:43;;;;;;;0.50;0.10;;;;;;;8.36;79.77;97597.56;5000935;28;20628;-70
2023/01/17 13:13:28;;;;;;;0.50;0.10;;;;;;;8.34;78.62;97587.13;5004808;28;20491;-72
2023/01/17 13:16:24;;;;;;;0.50;0.10;;;;;;;8.32;79.34;97576.69;4988148;28;20034;-71
2023/01/17 13:18:51;;;;;;;0.50;0.10;;;;;;;8.33;78.82;97583.66;4991949;28;20026;-71
2023/01/17 13:21:31;;;;;;;0.50;0.10;;;;;;;8.33;77.45;97567.06;5001066;28;20406;-71